createdAt,value
2018-05-17T13:11:49.498Z,5.40
2018-05-17T13:14:15.730Z,5.87
2018-05-17T13:16:41.849Z,5.90
2018-05-17T13:19:08.018Z,6.03
2018-05-17T13:21:34.241Z,5.67
2018-05-17T13:24:01.295Z,4.40
2018-05-17T13:26:27.419Z,5.27
2018-05-17T13:28:53.575Z,5.53
2018-05-17T13:31:19.723Z,5.97
2018-05-17T13:33:45.895Z,4.77
2018-05-17T13:36:12.112Z,4.67
2018-05-17T13:38:38.270Z,5.87
2018-05-17T13:41:04.510Z,4.90
2018-05-17T13:43:31.483Z,4.63
2018-05-17T13:45:57.798Z,5.90
2018-05-17T13:48:23.951Z,5.33
2018-05-17T13:50:50.219Z,5.03
2018-05-17T13:53:17.101Z,5.53
2018-05-17T13:55:43.294Z,5.37
2018-05-17T13:58:09.446Z,5.17
2018-05-17T14:00:35.673Z,5.83
2018-05-17T14:03:01.814Z,7.47
2018-05-17T14:05:28.021Z,5.93
2018-05-17T14:08:01.899Z,5.00
2018-05-17T14:10:28.122Z,6.03
2018-05-17T14:12:54.250Z,5.27
2018-05-17T14:15:20.523Z,4.87
2018-05-17T14:17:46.550Z,5.40
2018-05-17T14:20:12.676Z,4.87
2018-05-17T14:22:38.882Z,5.43
2018-05-17T14:25:05.066Z,6.83
2018-05-17T14:27:31.239Z,5.80
2018-05-17T14:29:57.499Z,6.47
2018-05-17T14:32:24.419Z,6.13
2018-05-17T14:34:50.666Z,5.90
2018-05-17T14:37:16.949Z,4.90
2018-05-17T14:39:43.139Z,5.13
2018-05-17T14:42:09.683Z,4.60
2018-05-17T14:44:35.853Z,6.67
2018-05-17T14:47:02.190Z,5.40
2018-05-17T14:49:28.515Z,5.80
2018-05-17T14:51:54.684Z,5.30
2018-05-17T14:54:20.965Z,5.20
2018-05-17T14:56:47.235Z,5.37
2018-05-17T14:59:13.415Z,5.63
2018-05-17T15:01:39.790Z,4.73
2018-05-17T15:04:06.026Z,5.27
2018-05-17T15:06:32.231Z,5.17
2018-05-17T15:08:58.535Z,5.07
2018-05-17T15:11:24.800Z,5.90
2018-05-17T15:13:50.898Z,5.10
2018-05-17T15:16:17.093Z,5.37
2018-05-17T15:18:43.310Z,6.33
2018-05-17T15:21:09.480Z,5.60
2018-05-17T15:23:35.720Z,5.37
2018-05-17T15:26:01.853Z,6.77
2018-05-17T15:28:28.094Z,7.20
2018-05-17T15:30:54.228Z,7.30
2018-05-17T15:33:20.394Z,7.53
2018-05-17T15:35:46.632Z,6.90
2018-05-17T15:38:12.910Z,6.27
2018-05-17T15:40:39.970Z,8.27
2018-05-17T15:43:06.879Z,7.00
2018-05-17T15:45:34.074Z,6.00
2018-05-17T15:48:00.565Z,6.80
2018-05-17T15:50:26.771Z,7.47
2018-05-17T15:52:52.982Z,6.13
2018-05-17T15:55:19.172Z,6.57
2018-05-17T15:57:46.097Z,6.30
2018-05-17T16:00:12.318Z,6.63
2018-05-17T16:02:38.470Z,7.33
2018-05-17T16:05:04.632Z,6.57
2018-05-17T16:07:31.865Z,7.30
2018-05-17T16:09:58.020Z,6.00
2018-05-17T16:12:24.215Z,7.43
2018-05-17T16:14:50.394Z,6.60
2018-05-17T16:17:16.515Z,6.57
2018-05-17T16:19:43.466Z,7.90
2018-05-17T16:22:10.494Z,6.50
2018-05-17T16:24:37.451Z,5.97
2018-05-17T16:27:05.251Z,7.57
2018-05-17T16:29:31.491Z,6.50
2018-05-17T16:31:58.077Z,7.20
2018-05-17T16:34:24.215Z,6.80
2018-05-17T16:36:51.306Z,7.03
2018-05-17T16:39:18.486Z,7.33
2018-05-17T16:41:44.606Z,6.90
2018-05-17T16:44:10.722Z,7.97
2018-05-17T16:46:37.712Z,7.60
2018-05-17T16:49:03.848Z,8.30
2018-05-17T16:51:30.061Z,7.00
2018-05-17T16:53:57.394Z,7.90
2018-05-17T16:56:24.268Z,7.80
2018-05-17T16:58:50.464Z,6.30
2018-05-17T17:01:17.278Z,8.30
2018-05-17T17:03:44.469Z,8.60
2018-05-17T17:06:12.328Z,8.03
2018-05-17T17:08:38.448Z,7.87
2018-05-17T17:11:04.572Z,9.87
2018-05-17T17:13:31.434Z,8.73
2018-05-17T17:15:57.682Z,8.90
2018-05-17T17:18:24.568Z,8.10
2018-05-17T17:20:50.699Z,8.10
2018-05-17T17:23:16.879Z,8.00
2018-05-17T17:25:43.056Z,7.17
2018-05-17T17:28:09.937Z,7.33
2018-05-17T17:30:37.134Z,9.67
2018-05-17T17:33:03.279Z,8.10
2018-05-17T17:35:29.840Z,8.43
2018-05-17T17:37:56.234Z,8.07
2018-05-17T17:40:28.678Z,7.37
2018-05-17T17:42:55.126Z,8.20
2018-05-17T17:45:21.382Z,8.30
2018-05-17T17:47:48.716Z,8.50
2018-05-17T17:50:15.486Z,6.77
2018-05-17T17:52:42.404Z,8.77
2018-05-17T17:55:08.582Z,7.97
2018-05-17T17:57:38.564Z,7.93
2018-05-17T18:00:05.118Z,7.47
2018-05-17T18:02:32.837Z,8.10
2018-05-17T18:04:59.037Z,9.60
2018-05-17T18:07:25.896Z,9.00
2018-05-17T18:09:52.022Z,7.70
2018-05-17T18:12:18.931Z,9.97
2018-05-17T18:14:45.063Z,8.50
2018-05-17T18:17:12.142Z,7.40
2018-05-17T18:19:38.425Z,6.40
2018-05-17T18:22:05.280Z,8.40
2018-05-17T18:24:31.439Z,8.40
2018-05-17T18:26:58.304Z,6.53
2018-05-17T18:29:24.597Z,8.13
2018-05-17T18:31:51.558Z,7.73
2018-05-17T18:34:17.774Z,8.00
2018-05-17T18:36:43.988Z,8.47
2018-05-17T18:39:10.966Z,7.80
2018-05-17T18:41:37.099Z,8.30
2018-05-17T18:44:03.237Z,9.30
2018-05-17T18:46:29.370Z,9.13
2018-05-17T18:48:55.594Z,13.60
2018-05-17T18:51:22.499Z,11.50
2018-05-17T18:53:48.627Z,9.70
2018-05-17T18:56:14.772Z,12.40
2018-05-17T18:58:41.651Z,8.03
2018-05-17T19:01:08.546Z,7.40
2018-05-17T19:03:35.430Z,9.37
2018-05-17T19:06:01.549Z,8.53
2018-05-17T19:08:27.678Z,9.50
2018-05-17T19:10:53.811Z,9.10
2018-05-17T19:13:20.712Z,8.90
2018-05-17T19:15:46.841Z,8.27
2018-05-17T19:18:14.103Z,8.43
2018-05-17T19:20:40.222Z,8.83
2018-05-17T19:23:06.419Z,8.63
2018-05-17T19:25:32.615Z,9.40
2018-05-17T19:27:59.490Z,8.23
2018-05-17T19:30:25.875Z,8.20
2018-05-17T19:32:52.927Z,9.67
2018-05-17T19:35:19.032Z,9.77
2018-05-17T19:37:45.154Z,9.73
2018-05-17T19:40:12.099Z,9.00
2018-05-17T19:42:38.234Z,10.20
2018-05-17T19:45:04.413Z,9.53
2018-05-17T19:47:30.527Z,9.50
2018-05-17T19:49:56.675Z,8.47
2018-05-17T19:52:23.546Z,8.77
2018-05-17T19:54:49.682Z,8.23
2018-05-17T19:57:16.557Z,8.30
2018-05-17T19:59:42.685Z,8.90
2018-05-17T20:02:08.823Z,7.33
2018-05-17T20:04:34.966Z,7.20
2018-05-17T20:07:01.082Z,8.20
2018-05-17T20:09:27.218Z,7.47
2018-05-17T20:11:53.351Z,7.37
2018-05-17T20:14:19.482Z,8.50
2018-05-17T20:16:47.734Z,8.07
2018-05-17T20:19:13.868Z,7.23
2018-05-17T20:21:39.988Z,7.27
2018-05-17T20:24:06.845Z,6.40
2018-05-17T20:26:33.721Z,7.97
2018-05-17T20:28:59.922Z,7.87
2018-05-17T20:31:27.030Z,8.53
2018-05-17T20:33:53.191Z,6.43
2018-05-17T20:36:19.325Z,7.60
2018-05-17T20:38:46.587Z,6.93
2018-05-17T20:41:12.715Z,7.40
2018-05-17T20:43:38.850Z,7.57
2018-05-17T20:46:04.994Z,6.70
2018-05-17T20:48:31.146Z,7.43
2018-05-17T20:50:57.302Z,6.00
2018-05-17T20:53:23.413Z,7.00
2018-05-17T20:55:49.547Z,6.13
2018-05-17T20:58:15.669Z,6.60
2018-05-17T21:00:42.568Z,7.00
2018-05-17T21:03:08.686Z,6.43
2018-05-17T21:05:34.834Z,6.87
2018-05-17T21:08:00.969Z,6.07
2018-05-17T21:10:27.155Z,7.00
2018-05-17T21:12:53.350Z,6.83
2018-05-17T21:15:19.454Z,6.30
2018-05-17T21:17:45.575Z,7.43
2018-05-17T21:20:11.726Z,6.80
2018-05-17T21:22:38.843Z,6.47
2018-05-17T21:25:04.979Z,6.20
2018-05-17T21:27:31.116Z,5.70
2018-05-17T21:29:57.350Z,6.20
2018-05-17T21:32:24.211Z,7.40
2018-05-17T21:34:51.073Z,7.37
2018-05-17T21:37:17.336Z,7.50
2018-05-17T21:39:43.422Z,7.13
2018-05-17T21:42:09.595Z,6.10
2018-05-17T21:44:36.438Z,6.37
2018-05-17T21:47:02.575Z,7.87
2018-05-17T21:49:29.452Z,6.60
2018-05-17T21:51:56.675Z,7.77
2018-05-17T21:54:22.945Z,7.37
2018-05-17T21:56:49.863Z,7.60
2018-05-17T21:59:16.726Z,7.03
2018-05-17T22:01:42.870Z,6.60
2018-05-17T22:04:09.723Z,6.90
2018-05-17T22:06:35.835Z,6.67
2018-05-17T22:09:02.045Z,6.93
2018-05-17T22:11:28.209Z,7.07
2018-05-17T22:13:54.778Z,8.13
2018-05-17T22:16:20.946Z,8.13
2018-05-17T22:18:47.094Z,8.03
2018-05-17T22:21:13.336Z,7.00
2018-05-17T22:23:39.751Z,9.80
2018-05-17T22:26:05.935Z,8.23
2018-05-17T22:28:32.878Z,8.30
2018-05-17T22:30:59.030Z,8.47
2018-05-17T22:33:25.246Z,7.10
2018-05-17T22:35:51.430Z,7.40
2018-05-17T22:38:17.623Z,6.80
2018-05-17T22:40:44.650Z,7.10
2018-05-17T22:43:10.828Z,6.87
2018-05-17T22:45:36.958Z,7.10
2018-05-17T22:48:03.133Z,7.37
2018-05-17T22:50:29.373Z,6.60
2018-05-17T22:52:55.491Z,7.10
2018-05-17T22:55:21.662Z,7.40
2018-05-17T22:58:00.188Z,7.10
2018-05-17T23:00:26.414Z,7.70
2018-05-17T23:02:52.662Z,6.97
2018-05-17T23:05:18.863Z,7.27
2018-05-17T23:07:45.039Z,8.13
2018-05-17T23:10:11.171Z,8.00
2018-05-17T23:12:37.341Z,7.73
2018-05-17T23:15:03.466Z,8.00
2018-05-17T23:17:29.712Z,7.77
2018-05-17T23:19:55.840Z,8.07
2018-05-17T23:22:34.271Z,8.83
2018-05-17T23:25:00.441Z,7.40
2018-05-17T23:27:27.376Z,7.63
2018-05-17T23:29:53.518Z,8.33
2018-05-17T23:32:19.746Z,8.27
2018-05-17T23:34:46.926Z,10.70
2018-05-17T23:37:19.206Z,8.70
2018-05-17T23:39:45.345Z,8.50
2018-05-17T23:42:11.494Z,8.17
2018-05-17T23:44:37.726Z,9.10
2018-05-17T23:47:03.907Z,7.80
2018-05-17T23:49:30.834Z,7.50
2018-05-17T23:51:56.994Z,7.20
2018-05-17T23:54:23.228Z,7.60
2018-05-17T23:56:49.447Z,7.83
2018-05-17T23:59:16.479Z,7.50
